sensor_id;sensor_type;location;lat;lon;timestamp;P1;durP1;ratioP1;P2;durP2;ratioP2
23594;SDS011;11975;47.674;9.472;2022-08-01T00:01:58;26.90;;;25.38;;
23594;SDS011;11975;47.674;9.472;2022-08-01T00:04:24;26.27;;;24.77;;
23594;SDS011;11975;47.674;9.472;2022-08-01T00:06:50;27.10;;;25.58;;
23594;SDS011;11975;47.674;9.472;2022-08-01T00:09:16;27.92;;;26.35;;
23594;SDS011;11975;47.674;9.472;2022-08-01T00:11:41;28.50;;;26.83;;
23594;SDS011;11975;47.674;9.472;2022-08-01T00:14:07;27.35;;;25.80;;
23594;SDS011;11975;47.674;9.472;2022-08-01T00:16:35;27.10;;;25.58;;
23594;SDS011;11975;47.674;9.472;2022-08-01T00:19:01;28.67;;;27.02;;
23594;SDS011;11975;47.674;9.472;2022-08-01T00:21:27;27.95;;;26.23;;
23594;SDS011;11975;47.674;9.472;2022-08-01T00:23:53;27.45;;;25.83;;
23594;SDS011;11975;47.674;9.472;2022-08-01T00:26:19;28.92;;;27.25;;
23594;SDS011;11975;47.674;9.472;2022-08-01T00:28:45;27.95;;;26.35;;
23594;SDS011;11975;47.674;9.472;2022-08-01T00:31:11;28.17;;;26.50;;
23594;SDS011;11975;47.674;9.472;2022-08-01T00:33:37;28.10;;;26.33;;
23594;SDS011;11975;47.674;9.472;2022-08-01T00:36:03;27.23;;;25.65;;
23594;SDS011;11975;47.674;9.472;2022-08-01T00:38:29;27.13;;;25.55;;
23594;SDS011;11975;47.674;9.472;2022-08-01T00:40:55;27.52;;;25.98;;
23594;SDS011;11975;47.674;9.472;2022-08-01T00:43:21;27.95;;;26.35;;
23594;SDS011;11975;47.674;9.472;2022-08-01T00:45:47;27.63;;;26.10;;
23594;SDS011;11975;47.674;9.472;2022-08-01T00:48:13;26.92;;;25.42;;
23594;SDS011;11975;47.674;9.472;2022-08-01T00:50:39;27.23;;;25.65;;
23594;SDS011;11975;47.674;9.472;2022-08-01T00:53:05;26.73;;;25.23;;
23594;SDS011;11975;47.674;9.472;2022-08-01T00:55:31;26.10;;;24.65;;
23594;SDS011;11975;47.674;9.472;2022-08-01T00:57:57;25.80;;;24.30;;
23594;SDS011;11975;47.674;9.472;2022-08-01T01:00:24;25.50;;;24.00;;
23594;SDS011;11975;47.674;9.472;2022-08-01T01:02:51;24.50;;;23.13;;
23594;SDS011;11975;47.674;9.472;2022-08-01T01:05:17;23.80;;;22.40;;
23594;SDS011;11975;47.674;9.472;2022-08-01T01:07:48;24.08;;;22.75;;
23594;SDS011;11975;47.674;9.472;2022-08-01T01:10:21;25.10;;;23.60;;
23594;SDS011;11975;47.674;9.472;2022-08-01T01:15:41;25.33;;;23.92;;
23594;SDS011;11975;47.674;9.472;2022-08-01T01:26:57;24.23;;;22.83;;
23594;SDS011;11975;47.674;9.472;2022-08-01T01:29:51;23.90;;;22.55;;
23594;SDS011;11975;47.674;9.472;2022-08-01T01:32:19;24.05;;;22.67;;
23594;SDS011;11975;47.674;9.472;2022-08-01T01:35:08;24.90;;;23.40;;
23594;SDS011;11975;47.674;9.472;2022-08-01T01:37:35;23.92;;;22.63;;
23594;SDS011;11975;47.674;9.472;2022-08-01T01:40:04;24.60;;;23.20;;
23594;SDS011;11975;47.674;9.472;2022-08-01T01:44:57;23.70;;;22.40;;
23594;SDS011;11975;47.674;9.472;2022-08-01T01:47:24;24.75;;;23.35;;
23594;SDS011;11975;47.674;9.472;2022-08-01T01:49:50;24.38;;;23.00;;
23594;SDS011;11975;47.674;9.472;2022-08-01T01:52:17;25.00;;;23.60;;
23594;SDS011;11975;47.674;9.472;2022-08-01T01:54:47;24.65;;;23.25;;
23594;SDS011;11975;47.674;9.472;2022-08-01T01:57:15;23.48;;;22.10;;
23594;SDS011;11975;47.674;9.472;2022-08-01T01:59:41;23.90;;;22.55;;
23594;SDS011;11975;47.674;9.472;2022-08-01T02:02:08;24.25;;;22.85;;
23594;SDS011;11975;47.674;9.472;2022-08-01T02:04:35;24.17;;;22.80;;
23594;SDS011;11975;47.674;9.472;2022-08-01T02:07:03;24.45;;;23.05;;
23594;SDS011;11975;47.674;9.472;2022-08-01T02:09:29;23.38;;;22.08;;
23594;SDS011;11975;47.674;9.472;2022-08-01T02:11:56;23.08;;;21.77;;
23594;SDS011;11975;47.674;9.472;2022-08-01T02:14:24;23.77;;;22.48;;
23594;SDS011;11975;47.674;9.472;2022-08-01T02:16:52;23.98;;;22.65;;
23594;SDS011;11975;47.674;9.472;2022-08-01T02:19:20;24.42;;;23.05;;
23594;SDS011;11975;47.674;9.472;2022-08-01T02:21:54;24.13;;;22.73;;
23594;SDS011;11975;47.674;9.472;2022-08-01T02:24:28;24.45;;;23.05;;
23594;SDS011;11975;47.674;9.472;2022-08-01T02:26:57;23.30;;;22.00;;
23594;SDS011;11975;47.674;9.472;2022-08-01T02:29:27;23.15;;;21.65;;
23594;SDS011;11975;47.674;9.472;2022-08-01T02:31:57;24.33;;;22.85;;
23594;SDS011;11975;47.674;9.472;2022-08-01T02:34:23;24.10;;;22.70;;
23594;SDS011;11975;47.674;9.472;2022-08-01T02:36:51;23.83;;;22.50;;
23594;SDS011;11975;47.674;9.472;2022-08-01T02:39:17;24.15;;;22.83;;
23594;SDS011;11975;47.674;9.472;2022-08-01T02:41:45;24.13;;;22.80;;
23594;SDS011;11975;47.674;9.472;2022-08-01T02:44:15;24.80;;;23.30;;
23594;SDS011;11975;47.674;9.472;2022-08-01T02:46:51;23.95;;;22.55;;
23594;SDS011;11975;47.674;9.472;2022-08-01T02:49:18;23.85;;;22.50;;
23594;SDS011;11975;47.674;9.472;2022-08-01T02:51:45;24.45;;;23.05;;
23594;SDS011;11975;47.674;9.472;2022-08-01T02:54:12;24.50;;;23.10;;
23594;SDS011;11975;47.674;9.472;2022-08-01T02:56:40;24.58;;;23.08;;
23594;SDS011;11975;47.674;9.472;2022-08-01T02:59:13;23.50;;;22.20;;
23594;SDS011;11975;47.674;9.472;2022-08-01T03:01:42;23.55;;;22.25;;
23594;SDS011;11975;47.674;9.472;2022-08-01T03:04:08;23.33;;;22.02;;
23594;SDS011;11975;47.674;9.472;2022-08-01T03:06:34;23.15;;;21.85;;
23594;SDS011;11975;47.674;9.472;2022-08-01T03:09:02;23.00;;;21.70;;
23594;SDS011;11975;47.674;9.472;2022-08-01T03:11:29;24.25;;;22.85;;
23594;SDS011;11975;47.674;9.472;2022-08-01T03:13:55;23.52;;;22.13;;
23594;SDS011;11975;47.674;9.472;2022-08-01T03:18:48;22.93;;;21.63;;
23594;SDS011;11975;47.674;9.472;2022-08-01T03:21:15;23.50;;;22.20;;
23594;SDS011;11975;47.674;9.472;2022-08-01T03:23:42;23.25;;;21.95;;
23594;SDS011;11975;47.674;9.472;2022-08-01T03:26:08;23.80;;;22.50;;
23594;SDS011;11975;47.674;9.472;2022-08-01T03:28:35;23.05;;;21.75;;
23594;SDS011;11975;47.674;9.472;2022-08-01T03:31:02;23.10;;;21.80;;
23594;SDS011;11975;47.674;9.472;2022-08-01T03:33:28;24.83;;;22.35;;
23594;SDS011;11975;47.674;9.472;2022-08-01T03:35:54;22.73;;;21.45;;
23594;SDS011;11975;47.674;9.472;2022-08-01T03:38:22;23.25;;;21.95;;
23594;SDS011;11975;47.674;9.472;2022-08-01T03:40:51;23.15;;;21.55;;
23594;SDS011;11975;47.674;9.472;2022-08-01T03:43:22;23.20;;;21.90;;
23594;SDS011;11975;47.674;9.472;2022-08-01T03:45:51;23.20;;;21.90;;
23594;SDS011;11975;47.674;9.472;2022-08-01T03:48:19;24.02;;;22.73;;
23594;SDS011;11975;47.674;9.472;2022-08-01T03:50:50;23.70;;;22.30;;
23594;SDS011;11975;47.674;9.472;2022-08-01T03:53:19;24.15;;;22.75;;
23594;SDS011;11975;47.674;9.472;2022-08-01T03:55:46;23.83;;;22.42;;
23594;SDS011;11975;47.674;9.472;2022-08-01T03:58:13;23.48;;;22.17;;
23594;SDS011;11975;47.674;9.472;2022-08-01T04:00:40;24.85;;;23.45;;
23594;SDS011;11975;47.674;9.472;2022-08-01T04:03:07;24.75;;;23.23;;
23594;SDS011;11975;47.674;9.472;2022-08-01T04:05:33;25.13;;;23.73;;
23594;SDS011;11975;47.674;9.472;2022-08-01T04:08:00;24.45;;;23.05;;
23594;SDS011;11975;47.674;9.472;2022-08-01T04:10:28;23.95;;;22.63;;
23594;SDS011;11975;47.674;9.472;2022-08-01T04:12:54;25.27;;;23.88;;
23594;SDS011;11975;47.674;9.472;2022-08-01T04:15:20;24.00;;;22.70;;
23594;SDS011;11975;47.674;9.472;2022-08-01T04:17:47;24.35;;;23.00;;
23594;SDS011;11975;47.674;9.472;2022-08-01T04:20:13;24.77;;;23.03;;
23594;SDS011;11975;47.674;9.472;2022-08-01T04:22:39;24.37;;;22.90;;
23594;SDS011;11975;47.674;9.472;2022-08-01T04:25:28;23.88;;;22.58;;
23594;SDS011;11975;47.674;9.472;2022-08-01T04:27:54;24.00;;;22.60;;
23594;SDS011;11975;47.674;9.472;2022-08-01T04:30:27;24.27;;;22.88;;
23594;SDS011;11975;47.674;9.472;2022-08-01T04:32:58;25.27;;;23.77;;
23594;SDS011;11975;47.674;9.472;2022-08-01T04:35:26;24.95;;;23.55;;
23594;SDS011;11975;47.674;9.472;2022-08-01T04:37:52;24.75;;;23.35;;
23594;SDS011;11975;47.674;9.472;2022-08-01T04:40:19;24.13;;;22.80;;
23594;SDS011;11975;47.674;9.472;2022-08-01T04:42:48;22.83;;;21.52;;
23594;SDS011;11975;47.674;9.472;2022-08-01T04:45:14;21.67;;;20.48;;
23594;SDS011;11975;47.674;9.472;2022-08-01T04:47:40;22.10;;;20.90;;
23594;SDS011;11975;47.674;9.472;2022-08-01T04:52:35;20.50;;;19.40;;
23594;SDS011;11975;47.674;9.472;2022-08-01T04:55:02;21.88;;;20.67;;
23594;SDS011;11975;47.674;9.472;2022-08-01T04:57:29;20.05;;;18.90;;
23594;SDS011;11975;47.674;9.472;2022-08-01T04:59:56;19.75;;;18.65;;
23594;SDS011;11975;47.674;9.472;2022-08-01T05:02:24;18.35;;;17.35;;
23594;SDS011;11975;47.674;9.472;2022-08-01T05:04:53;17.55;;;16.55;;
23594;SDS011;11975;47.674;9.472;2022-08-01T05:07:20;17.95;;;16.95;;
23594;SDS011;11975;47.674;9.472;2022-08-01T05:09:46;16.92;;;16.02;;
23594;SDS011;11975;47.674;9.472;2022-08-01T05:12:12;15.98;;;15.07;;
23594;SDS011;11975;47.674;9.472;2022-08-01T05:14:39;16.13;;;15.23;;
23594;SDS011;11975;47.674;9.472;2022-08-01T05:17:06;16.25;;;15.35;;
23594;SDS011;11975;47.674;9.472;2022-08-01T05:24:29;16.67;;;15.73;;
23594;SDS011;11975;47.674;9.472;2022-08-01T05:26:56;16.65;;;15.75;;
23594;SDS011;11975;47.674;9.472;2022-08-01T05:29:22;17.88;;;16.88;;
23594;SDS011;11975;47.674;9.472;2022-08-01T05:31:48;17.75;;;16.65;;
23594;SDS011;11975;47.674;9.472;2022-08-01T05:34:14;17.65;;;16.33;;
23594;SDS011;11975;47.674;9.472;2022-08-01T05:36:40;16.00;;;15.10;;
23594;SDS011;11975;47.674;9.472;2022-08-01T05:39:06;16.27;;;15.38;;
23594;SDS011;11975;47.674;9.472;2022-08-01T05:41:32;16.95;;;15.95;;
23594;SDS011;11975;47.674;9.472;2022-08-01T05:43:58;16.20;;;15.30;;
23594;SDS011;11975;47.674;9.472;2022-08-01T05:46:24;15.90;;;15.00;;
23594;SDS011;11975;47.674;9.472;2022-08-01T05:48:50;16.60;;;15.70;;
23594;SDS011;11975;47.674;9.472;2022-08-01T05:51:16;16.52;;;15.52;;
23594;SDS011;11975;47.674;9.472;2022-08-01T05:53:42;16.33;;;15.43;;
23594;SDS011;11975;47.674;9.472;2022-08-01T05:56:07;16.08;;;15.18;;
23594;SDS011;11975;47.674;9.472;2022-08-01T05:58:33;15.25;;;14.45;;
23594;SDS011;11975;47.674;9.472;2022-08-01T06:00:59;15.07;;;14.27;;
23594;SDS011;11975;47.674;9.472;2022-08-01T06:03:25;16.70;;;15.80;;
23594;SDS011;11975;47.674;9.472;2022-08-01T06:05:51;17.33;;;16.33;;
23594;SDS011;11975;47.674;9.472;2022-08-01T06:08:18;16.80;;;15.90;;
23594;SDS011;11975;47.674;9.472;2022-08-01T06:10:44;17.20;;;16.20;;
23594;SDS011;11975;47.674;9.472;2022-08-01T06:13:10;16.35;;;15.45;;
23594;SDS011;11975;47.674;9.472;2022-08-01T06:15:35;16.33;;;15.43;;
23594;SDS011;11975;47.674;9.472;2022-08-01T06:18:01;15.83;;;14.93;;
23594;SDS011;11975;47.674;9.472;2022-08-01T06:20:27;15.80;;;14.90;;
23594;SDS011;11975;47.674;9.472;2022-08-01T06:22:53;15.20;;;14.40;;
23594;SDS011;11975;47.674;9.472;2022-08-01T06:25:20;15.80;;;14.90;;
23594;SDS011;11975;47.674;9.472;2022-08-01T06:27:46;14.93;;;14.13;;
23594;SDS011;11975;47.674;9.472;2022-08-01T06:30:12;14.90;;;14.10;;
23594;SDS011;11975;47.674;9.472;2022-08-01T06:32:38;14.75;;;13.95;;
23594;SDS011;11975;47.674;9.472;2022-08-01T06:35:04;14.27;;;13.47;;
23594;SDS011;11975;47.674;9.472;2022-08-01T06:37:31;15.35;;;14.55;;
23594;SDS011;11975;47.674;9.472;2022-08-01T06:40:01;14.88;;;14.07;;
23594;SDS011;11975;47.674;9.472;2022-08-01T06:42:28;14.77;;;13.98;;
23594;SDS011;11975;47.674;9.472;2022-08-01T06:44:54;15.02;;;14.23;;
23594;SDS011;11975;47.674;9.472;2022-08-01T06:47:20;15.20;;;14.30;;
23594;SDS011;11975;47.674;9.472;2022-08-01T06:49:46;15.55;;;14.70;;
23594;SDS011;11975;47.674;9.472;2022-08-01T06:52:12;15.73;;;14.83;;
23594;SDS011;11975;47.674;9.472;2022-08-01T06:54:38;15.30;;;14.40;;
23594;SDS011;11975;47.674;9.472;2022-08-01T06:57:04;15.50;;;14.60;;
23594;SDS011;11975;47.674;9.472;2022-08-01T07:01:56;15.82;;;14.93;;
23594;SDS011;11975;47.674;9.472;2022-08-01T07:04:22;14.63;;;13.83;;
23594;SDS011;11975;47.674;9.472;2022-08-01T07:06:48;15.40;;;14.50;;
23594;SDS011;11975;47.674;9.472;2022-08-01T07:09:14;15.43;;;14.53;;
23594;SDS011;11975;47.674;9.472;2022-08-01T07:11:40;14.67;;;13.87;;
23594;SDS011;11975;47.674;9.472;2022-08-01T07:14:06;15.70;;;14.80;;
23594;SDS011;11975;47.674;9.472;2022-08-01T07:16:32;15.73;;;14.83;;
23594;SDS011;11975;47.674;9.472;2022-08-01T07:18:58;14.67;;;13.87;;
23594;SDS011;11975;47.674;9.472;2022-08-01T07:21:24;15.43;;;14.53;;
23594;SDS011;11975;47.674;9.472;2022-08-01T07:23:50;14.90;;;14.10;;
23594;SDS011;11975;47.674;9.472;2022-08-01T07:26:16;15.73;;;14.80;;
23594;SDS011;11975;47.674;9.472;2022-08-01T07:28:42;15.20;;;14.20;;
23594;SDS011;11975;47.674;9.472;2022-08-01T07:31:08;14.10;;;13.30;;
23594;SDS011;11975;47.674;9.472;2022-08-01T07:33:34;14.77;;;13.97;;
23594;SDS011;11975;47.674;9.472;2022-08-01T07:36:00;14.77;;;13.97;;
23594;SDS011;11975;47.674;9.472;2022-08-01T07:38:26;14.77;;;13.90;;
23594;SDS011;11975;47.674;9.472;2022-08-01T07:40:52;15.03;;;14.20;;
23594;SDS011;11975;47.674;9.472;2022-08-01T07:43:20;15.25;;;14.32;;
23594;SDS011;11975;47.674;9.472;2022-08-01T07:45:46;14.90;;;14.10;;
23594;SDS011;11975;47.674;9.472;2022-08-01T07:48:12;14.80;;;14.00;;
23594;SDS011;11975;47.674;9.472;2022-08-01T07:50:38;15.87;;;14.97;;
23594;SDS011;11975;47.674;9.472;2022-08-01T07:53:04;13.97;;;13.17;;
23594;SDS011;11975;47.674;9.472;2022-08-01T07:55:30;14.27;;;13.48;;
23594;SDS011;11975;47.674;9.472;2022-08-01T07:57:56;13.73;;;13.02;;
23594;SDS011;11975;47.674;9.472;2022-08-01T08:00:22;14.13;;;13.32;;
23594;SDS011;11975;47.674;9.472;2022-08-01T08:02:48;14.20;;;13.38;;
23594;SDS011;11975;47.674;9.472;2022-08-01T08:05:14;13.77;;;13.00;;
23594;SDS011;11975;47.674;9.472;2022-08-01T08:07:40;12.75;;;12.05;;
23594;SDS011;11975;47.674;9.472;2022-08-01T08:10:06;13.50;;;12.80;;
23594;SDS011;11975;47.674;9.472;2022-08-01T08:12:32;12.95;;;12.25;;
23594;SDS011;11975;47.674;9.472;2022-08-01T08:14:59;13.50;;;12.80;;
23594;SDS011;11975;47.674;9.472;2022-08-01T08:17:26;13.93;;;13.13;;
23594;SDS011;11975;47.674;9.472;2022-08-01T08:19:53;12.80;;;12.10;;
23594;SDS011;11975;47.674;9.472;2022-08-01T08:22:19;13.30;;;12.60;;
23594;SDS011;11975;47.674;9.472;2022-08-01T08:24:45;12.75;;;12.05;;
23594;SDS011;11975;47.674;9.472;2022-08-01T08:27:11;13.98;;;13.13;;
23594;SDS011;11975;47.674;9.472;2022-08-01T08:29:37;13.40;;;12.70;;
23594;SDS011;11975;47.674;9.472;2022-08-01T08:32:03;13.10;;;12.40;;
23594;SDS011;11975;47.674;9.472;2022-08-01T08:34:29;13.90;;;13.10;;
23594;SDS011;11975;47.674;9.472;2022-08-01T08:36:55;13.82;;;12.93;;
23594;SDS011;11975;47.674;9.472;2022-08-01T08:39:23;13.10;;;12.40;;
23594;SDS011;11975;47.674;9.472;2022-08-01T08:41:49;13.02;;;12.32;;
23594;SDS011;11975;47.674;9.472;2022-08-01T08:44:15;12.80;;;12.10;;
23594;SDS011;11975;47.674;9.472;2022-08-01T08:49:09;12.63;;;11.93;;
23594;SDS011;11975;47.674;9.472;2022-08-01T08:51:38;12.93;;;12.13;;
23594;SDS011;11975;47.674;9.472;2022-08-01T08:54:05;12.70;;;12.00;;
23594;SDS011;11975;47.674;9.472;2022-08-01T08:56:31;12.30;;;11.60;;
23594;SDS011;11975;47.674;9.472;2022-08-01T08:59:00;12.35;;;11.65;;
23594;SDS011;11975;47.674;9.472;2022-08-01T09:01:27;12.65;;;11.95;;
23594;SDS011;11975;47.674;9.472;2022-08-01T09:03:53;13.07;;;12.38;;
23594;SDS011;11975;47.674;9.472;2022-08-01T09:06:19;12.35;;;11.68;;
23594;SDS011;11975;47.674;9.472;2022-08-01T09:08:45;12.00;;;11.30;;
23594;SDS011;11975;47.674;9.472;2022-08-01T09:11:12;12.50;;;11.80;;
23594;SDS011;11975;47.674;9.472;2022-08-01T09:13:38;12.32;;;11.63;;
23594;SDS011;11975;47.674;9.472;2022-08-01T09:16:04;11.75;;;11.05;;
23594;SDS011;11975;47.674;9.472;2022-08-01T09:21:18;11.88;;;11.27;;
23594;SDS011;11975;47.674;9.472;2022-08-01T09:23:47;12.02;;;11.43;;
23594;SDS011;11975;47.674;9.472;2022-08-01T09:26:47;11.52;;;10.93;;
23594;SDS011;11975;47.674;9.472;2022-08-01T09:29:06;12.35;;;11.65;;
23594;SDS011;11975;47.674;9.472;2022-08-01T09:31:40;12.63;;;11.88;;
23594;SDS011;11975;47.674;9.472;2022-08-01T09:34:07;12.60;;;11.90;;
23594;SDS011;11975;47.674;9.472;2022-08-01T09:41:38;12.68;;;11.98;;
23594;SDS011;11975;47.674;9.472;2022-08-01T09:44:03;12.60;;;11.90;;
23594;SDS011;11975;47.674;9.472;2022-08-01T09:46:29;12.57;;;11.88;;
23594;SDS011;11975;47.674;9.472;2022-08-01T09:48:56;13.13;;;12.30;;
23594;SDS011;11975;47.674;9.472;2022-08-01T09:51:33;12.80;;;12.10;;
23594;SDS011;11975;47.674;9.472;2022-08-01T09:54:04;12.68;;;11.98;;
23594;SDS011;11975;47.674;9.472;2022-08-01T09:56:37;12.20;;;11.52;;
23594;SDS011;11975;47.674;9.472;2022-08-01T09:59:05;12.82;;;12.13;;
23594;SDS011;11975;47.674;9.472;2022-08-01T10:01:41;12.25;;;11.55;;
23594;SDS011;11975;47.674;9.472;2022-08-01T10:04:10;13.00;;;12.30;;
23594;SDS011;11975;47.674;9.472;2022-08-01T10:06:44;13.32;;;12.55;;
23594;SDS011;11975;47.674;9.472;2022-08-01T10:09:31;13.70;;;12.90;;
23594;SDS011;11975;47.674;9.472;2022-08-01T10:11:59;12.98;;;12.27;;
23594;SDS011;11975;47.674;9.472;2022-08-01T10:14:25;12.35;;;11.70;;
23594;SDS011;11975;47.674;9.472;2022-08-01T10:16:53;13.18;;;12.48;;
23594;SDS011;11975;47.674;9.472;2022-08-01T10:19:22;12.40;;;11.70;;
23594;SDS011;11975;47.674;9.472;2022-08-01T10:21:52;12.35;;;11.65;;
23594;SDS011;11975;47.674;9.472;2022-08-01T10:24:20;13.13;;;12.43;;
23594;SDS011;11975;47.674;9.472;2022-08-01T10:26:47;13.02;;;12.32;;
23594;SDS011;11975;47.674;9.472;2022-08-01T10:29:17;13.25;;;12.55;;
23594;SDS011;11975;47.674;9.472;2022-08-01T10:31:44;12.98;;;12.27;;
23594;SDS011;11975;47.674;9.472;2022-08-01T10:36:36;12.95;;;12.25;;
23594;SDS011;11975;47.674;9.472;2022-08-01T10:39:05;12.88;;;12.15;;
23594;SDS011;11975;47.674;9.472;2022-08-01T10:41:32;13.65;;;12.48;;
23594;SDS011;11975;47.674;9.472;2022-08-01T10:44:00;12.15;;;11.45;;
23594;SDS011;11975;47.674;9.472;2022-08-01T10:46:26;12.43;;;11.73;;
23594;SDS011;11975;47.674;9.472;2022-08-01T10:49:01;12.10;;;11.43;;
23594;SDS011;11975;47.674;9.472;2022-08-01T10:51:28;12.73;;;12.02;;
23594;SDS011;11975;47.674;9.472;2022-08-01T10:53:54;13.27;;;12.57;;
23594;SDS011;11975;47.674;9.472;2022-08-01T10:56:21;12.65;;;11.95;;
23594;SDS011;11975;47.674;9.472;2022-08-01T10:58:48;12.55;;;11.85;;
23594;SDS011;11975;47.674;9.472;2022-08-01T11:03:40;13.20;;;12.43;;
23594;SDS011;11975;47.674;9.472;2022-08-01T11:06:14;14.00;;;13.20;;
23594;SDS011;11975;47.674;9.472;2022-08-01T11:08:41;12.35;;;11.65;;
23594;SDS011;11975;47.674;9.472;2022-08-01T11:11:08;13.23;;;12.52;;
23594;SDS011;11975;47.674;9.472;2022-08-01T11:14:17;12.52;;;11.82;;
23594;SDS011;11975;47.674;9.472;2022-08-01T11:16:30;12.88;;;12.18;;
23594;SDS011;11975;47.674;9.472;2022-08-01T11:18:57;12.57;;;11.88;;
23594;SDS011;11975;47.674;9.472;2022-08-01T11:27:21;12.95;;;12.25;;
23594;SDS011;11975;47.674;9.472;2022-08-01T11:32:51;12.98;;;12.27;;
23594;SDS011;11975;47.674;9.472;2022-08-01T11:35:19;26.98;;;13.18;;
23594;SDS011;11975;47.674;9.472;2022-08-01T11:37:47;12.80;;;12.10;;
23594;SDS011;11975;47.674;9.472;2022-08-01T11:40:21;13.23;;;12.52;;
23594;SDS011;11975;47.674;9.472;2022-08-01T11:42:49;12.77;;;12.07;;
23594;SDS011;11975;47.674;9.472;2022-08-01T11:45:46;13.13;;;12.43;;
23594;SDS011;11975;47.674;9.472;2022-08-01T11:48:20;12.82;;;12.13;;
23594;SDS011;11975;47.674;9.472;2022-08-01T11:50:49;12.27;;;11.60;;
23594;SDS011;11975;47.674;9.472;2022-08-01T11:53:16;13.10;;;12.40;;
23594;SDS011;11975;47.674;9.472;2022-08-01T11:55:51;13.38;;;12.57;;
23594;SDS011;11975;47.674;9.472;2022-08-01T11:58:25;12.80;;;12.10;;
23594;SDS011;11975;47.674;9.472;2022-08-01T12:00:55;12.82;;;12.13;;
23594;SDS011;11975;47.674;9.472;2022-08-01T12:03:25;13.18;;;12.48;;
23594;SDS011;11975;47.674;9.472;2022-08-01T12:05:55;12.57;;;11.88;;
23594;SDS011;11975;47.674;9.472;2022-08-01T12:10:51;13.50;;;12.80;;
23594;SDS011;11975;47.674;9.472;2022-08-01T12:13:17;13.20;;;12.40;;
23594;SDS011;11975;47.674;9.472;2022-08-01T12:15:44;12.88;;;12.18;;
23594;SDS011;11975;47.674;9.472;2022-08-01T12:18:11;12.85;;;12.15;;
23594;SDS011;11975;47.674;9.472;2022-08-01T12:20:41;13.55;;;12.85;;
23594;SDS011;11975;47.674;9.472;2022-08-01T12:23:09;13.23;;;12.52;;
23594;SDS011;11975;47.674;9.472;2022-08-01T12:25:36;12.95;;;12.25;;
23594;SDS011;11975;47.674;9.472;2022-08-01T12:28:05;12.65;;;11.95;;
23594;SDS011;11975;47.674;9.472;2022-08-01T12:30:33;12.60;;;11.90;;
23594;SDS011;11975;47.674;9.472;2022-08-01T12:33:01;12.65;;;11.95;;
23594;SDS011;11975;47.674;9.472;2022-08-01T12:35:29;13.30;;;12.50;;
23594;SDS011;11975;47.674;9.472;2022-08-01T12:37:57;12.82;;;12.13;;
23594;SDS011;11975;47.674;9.472;2022-08-01T12:42:59;12.38;;;11.68;;
23594;SDS011;11975;47.674;9.472;2022-08-01T12:45:33;13.30;;;12.55;;
23594;SDS011;11975;47.674;9.472;2022-08-01T12:48:11;13.80;;;13.00;;
23594;SDS011;11975;47.674;9.472;2022-08-01T12:50:40;13.32;;;12.52;;
23594;SDS011;11975;47.674;9.472;2022-08-01T12:53:13;12.07;;;11.38;;
23594;SDS011;11975;47.674;9.472;2022-08-01T12:56:14;13.55;;;12.75;;
23594;SDS011;11975;47.674;9.472;2022-08-01T12:58:33;13.15;;;12.45;;
23594;SDS011;11975;47.674;9.472;2022-08-01T13:01:06;12.55;;;11.85;;
23594;SDS011;11975;47.674;9.472;2022-08-01T13:03:34;13.07;;;12.38;;
23594;SDS011;11975;47.674;9.472;2022-08-01T13:06:00;11.63;;;11.02;;
23594;SDS011;11975;47.674;9.472;2022-08-01T13:08:29;11.75;;;11.15;;
23594;SDS011;11975;47.674;9.472;2022-08-01T13:11:03;13.70;;;12.95;;
23594;SDS011;11975;47.674;9.472;2022-08-01T13:13:44;13.05;;;12.35;;
23594;SDS011;11975;47.674;9.472;2022-08-01T13:16:14;12.75;;;12.05;;
23594;SDS011;11975;47.674;9.472;2022-08-01T13:18:48;13.40;;;12.70;;
23594;SDS011;11975;47.674;9.472;2022-08-01T13:21:16;12.60;;;11.90;;
23594;SDS011;11975;47.674;9.472;2022-08-01T13:26:46;12.80;;;12.10;;
23594;SDS011;11975;47.674;9.472;2022-08-01T13:29:14;12.90;;;12.20;;
23594;SDS011;11975;47.674;9.472;2022-08-01T13:31:48;13.20;;;12.30;;
23594;SDS011;11975;47.674;9.472;2022-08-01T13:34:15;11.80;;;11.20;;
23594;SDS011;11975;47.674;9.472;2022-08-01T13:36:41;12.73;;;11.93;;
23594;SDS011;11975;47.674;9.472;2022-08-01T13:39:07;12.05;;;11.45;;
23594;SDS011;11975;47.674;9.472;2022-08-01T13:41:52;12.77;;;12.07;;
23594;SDS011;11975;47.674;9.472;2022-08-01T13:44:18;13.20;;;12.20;;
23594;SDS011;11975;47.674;9.472;2022-08-01T13:46:44;13.00;;;12.30;;
23594;SDS011;11975;47.674;9.472;2022-08-01T13:49:13;13.95;;;12.70;;
23594;SDS011;11975;47.674;9.472;2022-08-01T13:51:39;13.13;;;12.43;;
23594;SDS011;11975;47.674;9.472;2022-08-01T13:54:05;13.48;;;12.73;;
23594;SDS011;11975;47.674;9.472;2022-08-01T13:56:31;12.30;;;11.63;;
23594;SDS011;11975;47.674;9.472;2022-08-01T13:58:58;12.85;;;12.15;;
23594;SDS011;11975;47.674;9.472;2022-08-01T14:01:24;13.10;;;12.40;;
23594;SDS011;11975;47.674;9.472;2022-08-01T14:03:51;12.80;;;12.10;;
23594;SDS011;11975;47.674;9.472;2022-08-01T14:06:17;12.88;;;12.18;;
23594;SDS011;11975;47.674;9.472;2022-08-01T14:08:44;13.60;;;12.90;;
23594;SDS011;11975;47.674;9.472;2022-08-01T14:11:10;12.80;;;12.10;;
23594;SDS011;11975;47.674;9.472;2022-08-01T14:13:37;12.60;;;11.90;;
23594;SDS011;11975;47.674;9.472;2022-08-01T14:16:07;13.23;;;12.50;;
23594;SDS011;11975;47.674;9.472;2022-08-01T14:18:33;12.52;;;11.82;;
23594;SDS011;11975;47.674;9.472;2022-08-01T14:20:59;12.90;;;12.20;;
23594;SDS011;11975;47.674;9.472;2022-08-01T14:23:25;13.15;;;12.45;;
23594;SDS011;11975;47.674;9.472;2022-08-01T14:25:51;13.10;;;12.40;;
23594;SDS011;11975;47.674;9.472;2022-08-01T14:28:18;13.32;;;12.63;;
23594;SDS011;11975;47.674;9.472;2022-08-01T14:30:44;13.05;;;12.35;;
23594;SDS011;11975;47.674;9.472;2022-08-01T14:33:11;12.02;;;11.38;;
23594;SDS011;11975;47.674;9.472;2022-08-01T14:35:37;12.77;;;12.07;;
23594;SDS011;11975;47.674;9.472;2022-08-01T14:38:03;13.15;;;12.45;;
23594;SDS011;11975;47.674;9.472;2022-08-01T14:40:29;13.02;;;12.32;;
23594;SDS011;11975;47.674;9.472;2022-08-01T14:42:55;13.18;;;12.48;;
23594;SDS011;11975;47.674;9.472;2022-08-01T14:45:21;12.73;;;12.02;;
23594;SDS011;11975;47.674;9.472;2022-08-01T14:47:47;12.95;;;12.25;;
23594;SDS011;11975;47.674;9.472;2022-08-01T14:50:13;12.50;;;11.80;;
23594;SDS011;11975;47.674;9.472;2022-08-01T14:52:41;13.20;;;12.50;;
23594;SDS011;11975;47.674;9.472;2022-08-01T14:55:09;12.55;;;11.85;;
23594;SDS011;11975;47.674;9.472;2022-08-01T14:57:36;12.77;;;12.07;;
23594;SDS011;11975;47.674;9.472;2022-08-01T15:02:29;12.65;;;11.95;;
23594;SDS011;11975;47.674;9.472;2022-08-01T15:04:55;13.20;;;12.50;;
23594;SDS011;11975;47.674;9.472;2022-08-01T15:07:21;13.35;;;12.65;;
23594;SDS011;11975;47.674;9.472;2022-08-01T15:09:47;11.88;;;11.27;;
23594;SDS011;11975;47.674;9.472;2022-08-01T15:12:13;12.93;;;12.23;;
23594;SDS011;11975;47.674;9.472;2022-08-01T15:14:39;12.60;;;11.90;;
23594;SDS011;11975;47.674;9.472;2022-08-01T15:17:14;12.52;;;11.82;;
23594;SDS011;11975;47.674;9.472;2022-08-01T15:19:48;12.95;;;12.25;;
23594;SDS011;11975;47.674;9.472;2022-08-01T15:22:15;13.35;;;12.60;;
23594;SDS011;11975;47.674;9.472;2022-08-01T15:24:42;12.95;;;12.25;;
23594;SDS011;11975;47.674;9.472;2022-08-01T15:27:08;12.70;;;12.00;;